createdAt,value
2022-08-02T00:02:56.372Z,0.70
2022-08-02T00:05:58.999Z,0.75
2022-08-02T00:09:01.975Z,0.80
2022-08-02T00:12:05.199Z,1.05
2022-08-02T00:18:18.413Z,1.10
2022-08-02T00:21:21.129Z,0.98
2022-08-02T00:24:30.786Z,1.17
2022-08-02T00:27:33.775Z,0.90
2022-08-02T00:30:37.866Z,1.15
2022-08-02T00:34:26.205Z,1.07
2022-08-02T00:37:03.093Z,1.20
2022-08-02T00:40:06.889Z,1.15
2022-08-02T00:43:11.762Z,1.57
2022-08-02T00:46:16.470Z,1.33
2022-08-02T00:49:21.200Z,1.67
2022-08-02T00:52:24.540Z,1.57
2022-08-02T00:55:31.334Z,1.63
2022-08-02T00:58:34.122Z,1.03
2022-08-02T01:01:56.059Z,1.10
2022-08-02T01:08:03.314Z,1.50
2022-08-02T01:11:05.993Z,1.35
2022-08-02T01:14:11.752Z,1.52
2022-08-02T01:17:21.940Z,1.70
2022-08-02T01:20:39.439Z,1.20
2022-08-02T01:23:57.234Z,1.50
2022-08-02T01:27:11.071Z,2.03
2022-08-02T01:30:15.502Z,1.97
2022-08-02T01:33:19.883Z,1.60
2022-08-02T01:36:23.303Z,1.47
2022-08-02T01:39:32.301Z,1.30
2022-08-02T01:42:36.702Z,1.27
2022-08-02T01:45:42.479Z,1.00
2022-08-02T01:48:46.824Z,1.10
2022-08-02T01:52:08.993Z,1.60
2022-08-02T01:55:19.087Z,1.30
2022-08-02T01:58:24.282Z,1.10
2022-08-02T02:01:28.370Z,1.10
2022-08-02T02:04:33.404Z,1.40
2022-08-02T02:07:36.690Z,1.23
2022-08-02T02:13:43.248Z,0.90
2022-08-02T02:16:49.453Z,1.27
2022-08-02T02:19:52.796Z,1.20
2022-08-02T02:25:59.164Z,1.40
2022-08-02T02:29:04.891Z,1.80
2022-08-02T02:32:09.857Z,1.80
2022-08-02T02:35:14.345Z,1.57
2022-08-02T02:38:19.516Z,1.33
2022-08-02T02:41:23.676Z,1.53
2022-08-02T02:44:27.296Z,1.63
2022-08-02T02:47:41.416Z,1.40
2022-08-02T02:50:44.645Z,1.50
2022-08-02T02:54:31.936Z,1.42
2022-08-02T02:57:13.118Z,1.50
2022-08-02T03:00:16.435Z,1.52
2022-08-02T03:03:21.385Z,1.23
2022-08-02T03:06:25.205Z,1.60
2022-08-02T03:09:27.983Z,1.40
2022-08-02T03:12:32.346Z,1.73
2022-08-02T03:15:36.081Z,1.50
2022-08-02T03:18:41.868Z,1.37
2022-08-02T03:21:44.957Z,1.30
2022-08-02T03:24:47.661Z,1.60
2022-08-02T03:27:50.363Z,1.42
2022-08-02T03:30:53.776Z,1.20
2022-08-02T03:33:59.595Z,1.63
2022-08-02T03:37:03.472Z,1.70
2022-08-02T03:40:09.259Z,1.30
2022-08-02T03:43:12.359Z,1.90
2022-08-02T03:46:16.363Z,1.85
2022-08-02T03:49:20.754Z,1.57
2022-08-02T03:52:24.210Z,1.73
2022-08-02T03:55:27.031Z,1.73
2022-08-02T03:58:29.693Z,1.63
2022-08-02T04:01:32.473Z,1.50
2022-08-02T04:04:36.545Z,1.30
2022-08-02T04:08:32.624Z,2.00
2022-08-02T04:14:23.203Z,1.67
2022-08-02T04:17:26.602Z,1.35
2022-08-02T04:20:32.747Z,1.40
2022-08-02T04:23:36.595Z,1.53
2022-08-02T04:26:41.395Z,1.70
2022-08-02T04:29:47.039Z,2.47
2022-08-02T04:32:50.978Z,2.40
2022-08-02T04:35:59.570Z,1.70
2022-08-02T04:39:02.566Z,1.73
2022-08-02T04:42:05.962Z,1.70
2022-08-02T04:45:09.985Z,1.77
2022-08-02T04:48:19.110Z,1.27
2022-08-02T04:51:23.203Z,1.70
2022-08-02T04:54:41.047Z,1.60
2022-08-02T04:57:56.019Z,1.48
2022-08-02T05:00:58.753Z,1.57
2022-08-02T05:04:01.414Z,1.40
2022-08-02T05:07:06.066Z,1.40
2022-08-02T05:10:09.455Z,1.53
2022-08-02T05:13:12.158Z,1.70
2022-08-02T05:16:15.098Z,1.65
2022-08-02T05:19:17.775Z,1.70
2022-08-02T05:22:21.750Z,1.90
2022-08-02T05:25:24.373Z,1.83
2022-08-02T05:28:27.059Z,1.38
2022-08-02T05:31:29.937Z,1.80
2022-08-02T05:34:32.630Z,1.63
2022-08-02T05:37:36.837Z,1.20
2022-08-02T05:40:54.517Z,1.60
2022-08-02T05:43:57.964Z,1.60
2022-08-02T05:47:00.670Z,1.50
2022-08-02T05:50:03.373Z,1.25
2022-08-02T05:53:14.384Z,1.70
2022-08-02T05:56:19.343Z,1.53
2022-08-02T05:59:28.920Z,2.17
2022-08-02T06:02:38.233Z,1.80
2022-08-02T06:05:41.723Z,2.00
2022-08-02T06:08:48.276Z,1.87
2022-08-02T06:12:01.322Z,1.70
2022-08-02T06:15:06.694Z,1.60
2022-08-02T06:18:09.558Z,1.70
2022-08-02T06:22:31.402Z,2.35
2022-08-02T06:24:38.644Z,2.10
2022-08-02T06:27:42.598Z,2.17
2022-08-02T06:30:45.798Z,2.10
2022-08-02T06:33:48.689Z,1.97
2022-08-02T06:36:59.565Z,1.90
2022-08-02T06:40:09.325Z,2.47
2022-08-02T06:43:13.983Z,2.20
2022-08-02T06:47:09.642Z,2.40
2022-08-02T06:49:51.594Z,2.20
2022-08-02T06:52:57.260Z,2.10
2022-08-02T06:56:02.136Z,2.55
2022-08-02T06:59:06.257Z,2.93
2022-08-02T07:02:09.876Z,2.60
2022-08-02T07:05:12.851Z,2.17
2022-08-02T07:08:15.821Z,2.67
2022-08-02T07:11:20.566Z,2.85
2022-08-02T07:14:23.160Z,2.47
2022-08-02T07:17:25.896Z,2.13
2022-08-02T07:20:28.689Z,2.35
2022-08-02T07:23:31.322Z,3.00
2022-08-02T07:26:49.674Z,2.60
2022-08-02T07:29:58.150Z,2.30
2022-08-02T07:33:02.097Z,2.70
2022-08-02T07:36:05.515Z,2.40
2022-08-02T07:39:10.788Z,2.97
2022-08-02T07:42:14.948Z,2.60
2022-08-02T07:45:17.741Z,2.50
2022-08-02T07:48:20.627Z,2.28
2022-08-02T07:51:23.425Z,2.97
2022-08-02T07:57:31.071Z,2.67
2022-08-02T08:00:34.015Z,4.10
2022-08-02T08:03:36.683Z,2.40
2022-08-02T08:06:39.334Z,3.00
2022-08-02T08:09:42.578Z,2.55
2022-08-02T08:12:46.618Z,3.35
2022-08-02T08:15:51.913Z,2.35
2022-08-02T08:18:55.512Z,2.47
2022-08-02T08:22:00.182Z,2.50
2022-08-02T08:25:02.814Z,2.70
2022-08-02T08:28:08.094Z,2.75
2022-08-02T08:31:11.196Z,2.47
2022-08-02T08:34:14.097Z,2.85
2022-08-02T08:37:18.514Z,3.05
2022-08-02T08:40:21.594Z,3.00
2022-08-02T08:46:29.373Z,2.47
2022-08-02T08:49:33.852Z,2.53
2022-08-02T08:52:38.381Z,2.90
2022-08-02T08:55:41.036Z,3.00
2022-08-02T08:58:45.951Z,2.72
2022-08-02T09:01:51.202Z,2.60
2022-08-02T09:04:55.163Z,2.58
2022-08-02T09:07:58.420Z,2.40
2022-08-02T09:11:01.660Z,2.50
2022-08-02T09:14:06.111Z,2.75
2022-08-02T09:17:10.355Z,2.92
2022-08-02T09:20:13.624Z,2.30
2022-08-02T09:23:16.286Z,2.95
2022-08-02T09:29:25.414Z,2.70
2022-08-02T09:32:29.676Z,2.97
2022-08-02T09:36:06.691Z,3.00
2022-08-02T09:38:58.318Z,2.88
2022-08-02T09:42:10.721Z,2.70
2022-08-02T09:45:14.974Z,2.70
2022-08-02T09:48:17.711Z,2.70
2022-08-02T09:51:22.059Z,2.65
2022-08-02T09:54:26.504Z,2.50
2022-08-02T09:57:30.507Z,3.05
2022-08-02T10:00:51.822Z,3.17
2022-08-02T10:03:57.101Z,2.90
2022-08-02T10:07:04.107Z,2.97
2022-08-02T10:10:08.512Z,3.38
2022-08-02T10:13:11.696Z,3.20
2022-08-02T10:16:16.968Z,3.10
2022-08-02T10:19:59.824Z,3.05
2022-08-02T10:22:42.419Z,2.70
2022-08-02T10:25:46.226Z,2.90
2022-08-02T10:28:50.503Z,3.15
2022-08-02T10:31:56.507Z,2.88
2022-08-02T10:35:18.917Z,2.72
2022-08-02T10:38:23.030Z,2.45
2022-08-02T10:41:42.087Z,2.85
2022-08-02T10:44:44.750Z,2.13
2022-08-02T10:48:03.542Z,2.40
2022-08-02T10:51:06.170Z,1.92
2022-08-02T10:54:11.912Z,1.65
2022-08-02T10:57:23.035Z,1.92
2022-08-02T11:00:27.996Z,1.75
2022-08-02T11:03:42.650Z,2.20
2022-08-02T11:07:14.016Z,2.45
2022-08-02T11:10:35.337Z,1.95
2022-08-02T11:14:00.925Z,2.20
2022-08-02T11:17:09.149Z,2.40
2022-08-02T11:20:18.675Z,2.30
2022-08-02T11:23:44.698Z,2.35
2022-08-02T11:26:48.461Z,2.50
2022-08-02T11:29:51.198Z,2.20
2022-08-02T11:32:56.518Z,2.10
2022-08-02T11:36:04.790Z,1.95
2022-08-02T11:39:11.591Z,2.08
2022-08-02T11:42:14.941Z,2.35
2022-08-02T11:45:20.810Z,2.03
2022-08-02T11:48:35.384Z,2.10
2022-08-02T11:51:39.969Z,2.00
2022-08-02T11:54:45.643Z,2.17
2022-08-02T11:58:04.318Z,2.65
2022-08-02T12:01:08.499Z,2.35
2022-08-02T12:04:11.419Z,2.10
2022-08-02T12:07:15.488Z,2.33
2022-08-02T12:10:19.822Z,2.10
2022-08-02T12:13:22.576Z,1.85
2022-08-02T12:16:42.906Z,1.90
2022-08-02T12:19:46.046Z,2.00
2022-08-02T12:22:50.000Z,2.67
2022-08-02T12:26:04.688Z,1.95
2022-08-02T12:29:07.495Z,1.83
2022-08-02T12:32:24.753Z,2.00
2022-08-02T12:35:32.017Z,2.08
2022-08-02T12:38:36.099Z,1.95
2022-08-02T12:41:38.729Z,1.63
2022-08-02T12:44:58.775Z,2.30
2022-08-02T12:48:02.286Z,2.08
2022-08-02T12:51:20.037Z,2.78
2022-08-02T12:54:31.437Z,2.00
2022-08-02T12:57:52.177Z,2.20
2022-08-02T13:00:56.211Z,1.70
2022-08-02T13:04:07.847Z,2.25
2022-08-02T13:07:15.127Z,1.98
2022-08-02T13:10:19.943Z,1.63
2022-08-02T13:13:22.544Z,1.80
2022-08-02T13:16:30.857Z,1.42
2022-08-02T13:19:34.005Z,1.85
2022-08-02T13:22:37.436Z,1.65
2022-08-02T13:25:55.656Z,1.48
2022-08-02T13:28:58.212Z,1.90
2022-08-02T13:32:01.120Z,1.40
2022-08-02T13:35:03.986Z,1.70
2022-08-02T13:38:07.743Z,2.00
2022-08-02T13:41:13.498Z,1.45
2022-08-02T13:44:16.156Z,1.55
2022-08-02T13:47:26.735Z,1.60
2022-08-02T13:50:39.173Z,1.75
2022-08-02T13:53:42.184Z,1.50
2022-08-02T13:56:46.207Z,1.20
2022-08-02T13:59:57.318Z,1.40
2022-08-02T14:03:01.604Z,1.60
2022-08-02T14:06:04.441Z,1.58
2022-08-02T14:09:07.040Z,1.30
2022-08-02T14:12:11.700Z,1.42
2022-08-02T14:15:14.630Z,1.48
2022-08-02T14:18:17.437Z,2.20
2022-08-02T14:21:20.142Z,1.58
2022-08-02T14:24:23.777Z,1.63
2022-08-02T14:27:27.803Z,1.73
2022-08-02T14:30:30.739Z,1.42
2022-08-02T14:33:33.496Z,1.58
2022-08-02T14:36:37.861Z,1.20
2022-08-02T14:39:43.555Z,1.77
2022-08-02T14:46:06.768Z,1.63
2022-08-02T14:49:10.871Z,1.30
2022-08-02T14:52:17.328Z,1.45
2022-08-02T14:55:20.140Z,1.40
2022-08-02T14:58:24.444Z,1.00
2022-08-02T15:01:27.165Z,1.10
2022-08-02T15:04:34.298Z,1.17
2022-08-02T15:07:49.541Z,1.17
2022-08-02T15:10:52.490Z,1.65
2022-08-02T15:13:59.119Z,1.17
2022-08-02T15:17:02.558Z,1.15
2022-08-02T15:20:25.268Z,1.30
2022-08-02T15:23:37.382Z,1.35
2022-08-02T15:26:41.268Z,1.02
2022-08-02T15:29:46.776Z,1.20
2022-08-02T15:32:53.327Z,1.13
2022-08-02T15:35:56.323Z,0.98
2022-08-02T15:38:59.017Z,1.05
2022-08-02T15:42:01.883Z,1.40
2022-08-02T15:45:06.732Z,1.30
2022-08-02T15:48:09.378Z,1.30
2022-08-02T15:51:12.085Z,0.98
2022-08-02T15:54:14.921Z,1.20
2022-08-02T15:57:17.775Z,1.30
2022-08-02T16:00:22.362Z,1.20
2022-08-02T16:03:25.041Z,1.20
2022-08-02T16:06:27.651Z,1.00
2022-08-02T16:09:30.248Z,1.10
2022-08-02T16:12:33.127Z,0.98
2022-08-02T16:15:37.248Z,1.02
2022-08-02T16:18:39.923Z,1.60
2022-08-02T16:21:42.624Z,1.20
2022-08-02T16:24:45.303Z,1.20
2022-08-02T16:28:06.273Z,1.13
2022-08-02T16:31:11.826Z,1.10
2022-08-02T16:34:14.742Z,0.90
2022-08-02T16:37:17.417Z,1.33
2022-08-02T16:40:20.206Z,1.83
2022-08-02T16:43:22.982Z,1.00
2022-08-02T16:46:27.068Z,1.20
2022-08-02T16:50:05.245Z,0.73
2022-08-02T16:52:53.027Z,1.40
2022-08-02T16:55:56.349Z,1.15
2022-08-02T16:58:59.813Z,0.95
2022-08-02T17:02:15.069Z,1.23
2022-08-02T17:05:21.280Z,1.20
2022-08-02T17:08:23.883Z,1.10
2022-08-02T17:11:38.717Z,1.10
2022-08-02T17:14:54.968Z,1.00
2022-08-02T17:18:00.538Z,1.27
2022-08-02T17:21:04.075Z,1.40
2022-08-02T17:24:08.588Z,1.20
2022-08-02T17:27:11.877Z,1.30
2022-08-02T17:30:15.564Z,1.42
2022-08-02T17:33:19.646Z,0.93
2022-08-02T17:36:22.837Z,1.17
2022-08-02T17:39:33.531Z,1.30
2022-08-02T17:42:37.035Z,1.58
2022-08-02T17:45:59.720Z,1.33
2022-08-02T17:49:20.898Z,1.10
2022-08-02T17:52:51.909Z,1.55
2022-08-02T17:55:51.134Z,1.30
2022-08-02T17:58:54.159Z,1.40
2022-08-02T18:01:58.054Z,1.40
2022-08-02T18:05:05.692Z,1.70
2022-08-02T18:08:15.377Z,1.42
2022-08-02T18:11:52.805Z,1.50
2022-08-02T18:14:46.160Z,2.30
2022-08-02T18:17:52.223Z,2.13
2022-08-02T18:21:10.620Z,2.30
2022-08-02T18:24:20.064Z,3.08
2022-08-02T18:27:27.124Z,2.22
2022-08-02T18:30:31.073Z,2.25
2022-08-02T18:33:59.675Z,2.70
2022-08-02T18:40:00.337Z,2.70
2022-08-02T18:43:03.450Z,3.63
2022-08-02T18:46:16.203Z,3.47
2022-08-02T18:49:20.020Z,2.47
2022-08-02T18:52:31.000Z,1.90
2022-08-02T18:55:59.772Z,2.75
2022-08-02T19:02:00.158Z,2.42
2022-08-02T19:08:12.966Z,2.10
2022-08-02T19:11:15.691Z,2.22
2022-08-02T19:17:54.529Z,2.60
2022-08-02T19:20:53.449Z,2.15
2022-08-02T19:23:57.511Z,2.50
2022-08-02T19:27:04.801Z,4.40
2022-08-02T19:30:18.225Z,3.80
2022-08-02T19:33:54.402Z,3.33
2022-08-02T19:36:43.884Z,3.33
2022-08-02T19:39:48.690Z,3.55
2022-08-02T19:44:27.558Z,3.08
2022-08-02T19:49:39.372Z,3.22
2022-08-02T19:52:42.161Z,2.90
2022-08-02T19:55:59.638Z,2.43
2022-08-02T19:59:13.102Z,2.57
2022-08-02T20:02:17.281Z,4.70
2022-08-02T20:05:23.920Z,2.33
2022-08-02T20:08:31.583Z,2.30
2022-08-02T20:11:40.180Z,1.97
2022-08-02T20:14:50.756Z,2.17
2022-08-02T20:17:53.964Z,1.67
2022-08-02T20:20:56.666Z,1.98
2022-08-02T20:23:59.626Z,2.15
2022-08-02T20:30:08.287Z,2.10
2022-08-02T20:33:21.524Z,2.10
2022-08-02T20:36:25.037Z,1.87
2022-08-02T20:39:43.001Z,2.22
2022-08-02T20:42:48.616Z,2.73
2022-08-02T20:45:51.675Z,2.03
2022-08-02T20:52:00.289Z,1.73
2022-08-02T20:55:02.973Z,1.92
2022-08-02T20:58:06.995Z,1.83
2022-08-02T21:01:14.401Z,2.23
2022-08-02T21:07:39.941Z,2.05
2022-08-02T21:10:43.426Z,1.92
2022-08-02T21:14:05.614Z,2.00
2022-08-02T21:17:11.244Z,1.90
2022-08-02T21:23:49.055Z,1.90
2022-08-02T21:26:57.695Z,1.60
2022-08-02T21:30:01.671Z,1.90
2022-08-02T21:33:04.456Z,1.63
2022-08-02T21:36:20.749Z,2.10
2022-08-02T21:39:23.692Z,2.03
2022-08-02T21:42:26.953Z,1.67
2022-08-02T21:45:31.937Z,2.10
2022-08-02T21:48:36.417Z,2.07
2022-08-02T21:51:39.981Z,2.17
2022-08-02T21:54:46.034Z,1.90
2022-08-02T21:57:50.230Z,1.87
2022-08-02T22:00:54.228Z,2.25
2022-08-02T22:03:58.420Z,2.00
2022-08-02T22:07:01.062Z,2.10
2022-08-02T22:10:03.819Z,2.28
2022-08-02T22:13:06.399Z,2.20
2022-08-02T22:16:18.974Z,2.07
2022-08-02T22:19:22.670Z,1.90
2022-08-02T22:22:28.590Z,2.00
2022-08-02T22:25:37.268Z,1.70
2022-08-02T22:28:50.351Z,2.00
2022-08-02T22:31:57.139Z,1.90
2022-08-02T22:34:59.134Z,2.23
2022-08-02T22:38:14.897Z,2.60
2022-08-02T22:41:21.160Z,2.63
2022-08-02T22:44:23.811Z,2.27
2022-08-02T22:47:27.818Z,2.10
2022-08-02T22:50:30.619Z,2.50
2022-08-02T22:53:36.084Z,2.40
2022-08-02T22:56:38.996Z,2.53
2022-08-02T22:59:07.385Z,2.58
2022-08-02T22:59:11.661Z,2.20
2022-08-02T22:59:47.327Z,2.40
2022-08-02T23:02:52.856Z,2.23
2022-08-02T23:05:55.735Z,2.57
2022-08-02T23:08:58.359Z,2.03
2022-08-02T23:12:01.112Z,2.78
2022-08-02T23:15:03.957Z,2.72
2022-08-02T23:18:25.532Z,3.17
2022-08-02T23:22:01.003Z,2.63
2022-08-02T23:24:55.790Z,2.80
2022-08-02T23:27:58.871Z,2.40
2022-08-02T23:34:06.209Z,2.53
2022-08-02T23:37:08.884Z,2.33
2022-08-02T23:40:11.942Z,2.65
2022-08-02T23:46:18.329Z,2.70
2022-08-02T23:49:22.590Z,2.38
2022-08-02T23:52:25.496Z,2.60
2022-08-02T23:55:28.128Z,2.28
2022-08-02T23:58:33.061Z,2.22
